createdAt,value
2018-09-15T00:00:01.556Z,20.38
2018-09-15T00:02:30.418Z,20.35
2018-09-15T00:04:59.263Z,20.34
2018-09-15T00:07:28.119Z,20.28
2018-09-15T00:09:57.014Z,20.26
2018-09-15T00:12:25.849Z,20.21
2018-09-15T00:14:54.691Z,20.19
2018-09-15T00:17:24.388Z,20.20
2018-09-15T00:19:53.343Z,20.19
2018-09-15T00:22:22.171Z,20.15
2018-09-15T00:24:51.055Z,20.08
2018-09-15T00:27:19.887Z,20.09
2018-09-15T00:29:48.761Z,20.05
2018-09-15T00:32:17.654Z,20.06
2018-09-15T00:34:46.547Z,19.97
2018-09-15T00:37:15.381Z,19.90
2018-09-15T00:39:44.248Z,19.85
2018-09-15T00:42:13.123Z,19.79
2018-09-15T00:44:41.971Z,19.80
2018-09-15T00:47:10.802Z,19.72
2018-09-15T00:49:39.724Z,19.67
2018-09-15T00:52:08.557Z,19.69
2018-09-15T00:54:37.378Z,19.59
2018-09-15T00:57:06.435Z,19.62
2018-09-15T00:59:35.295Z,19.60
2018-09-15T01:02:04.097Z,19.68
2018-09-15T01:04:32.967Z,19.69
2018-09-15T01:07:01.793Z,19.65
2018-09-15T01:09:30.614Z,19.59
2018-09-15T01:11:59.468Z,19.60
2018-09-15T01:14:28.479Z,19.60
2018-09-15T01:16:57.311Z,19.59
2018-09-15T01:19:26.386Z,19.55
2018-09-15T01:21:55.225Z,19.53
2018-09-15T01:24:24.038Z,19.55
2018-09-15T01:26:52.931Z,19.52
2018-09-15T01:29:21.769Z,19.45
2018-09-15T01:31:50.618Z,19.38
2018-09-15T01:34:19.458Z,19.39
2018-09-15T01:36:48.306Z,19.33
2018-09-15T01:39:17.163Z,19.32
2018-09-15T01:41:45.988Z,19.24
2018-09-15T01:44:14.806Z,19.25
2018-09-15T01:46:44.859Z,19.22
2018-09-15T01:49:13.668Z,18.99
2018-09-15T01:51:42.506Z,18.88
2018-09-15T01:54:11.341Z,18.79
2018-09-15T01:56:40.146Z,18.81
2018-09-15T01:59:08.964Z,18.82
2018-09-15T02:01:39.022Z,18.83
2018-09-15T02:04:08.579Z,18.83
2018-09-15T02:06:37.451Z,18.85
2018-09-15T02:09:10.075Z,18.88
2018-09-15T02:11:38.878Z,18.81
2018-09-15T02:14:07.794Z,18.84
2018-09-15T02:16:36.691Z,18.86
2018-09-15T02:19:05.491Z,18.83
2018-09-15T02:21:34.310Z,18.73
2018-09-15T02:24:03.154Z,18.72
2018-09-15T02:26:31.951Z,18.69
2018-09-15T02:29:00.781Z,18.72
2018-09-15T02:31:29.718Z,18.72
2018-09-15T02:33:58.530Z,18.68
2018-09-15T02:36:27.432Z,18.68
2018-09-15T02:38:56.309Z,18.67
2018-09-15T02:41:25.097Z,18.61
2018-09-15T02:43:53.885Z,18.60
2018-09-15T02:46:22.794Z,18.57
2018-09-15T02:48:51.634Z,18.55
2018-09-15T02:51:20.496Z,18.52
2018-09-15T02:53:49.418Z,18.45
2018-09-15T02:56:18.254Z,18.46
2018-09-15T02:58:47.093Z,18.40
2018-09-15T03:01:15.965Z,18.40
2018-09-15T03:03:44.766Z,18.44
2018-09-15T03:06:13.562Z,18.41
2018-09-15T03:08:42.425Z,18.34
2018-09-15T03:11:12.303Z,18.36
2018-09-15T03:13:41.129Z,18.40
2018-09-15T03:16:10.091Z,18.40
2018-09-15T03:18:38.920Z,18.38
2018-09-15T03:21:07.759Z,18.42
2018-09-15T03:23:36.703Z,18.50
2018-09-15T03:26:05.604Z,18.44
2018-09-15T03:28:34.446Z,18.42
2018-09-15T03:31:03.269Z,18.39
2018-09-15T03:33:32.086Z,18.37
2018-09-15T03:36:00.976Z,18.30
2018-09-15T03:38:35.328Z,18.29
2018-09-15T03:41:04.164Z,18.24
2018-09-15T03:43:32.975Z,18.18
2018-09-15T03:46:01.788Z,18.11
2018-09-15T03:48:30.631Z,18.10
2018-09-15T03:51:00.819Z,18.11
2018-09-15T03:53:29.627Z,18.08
2018-09-15T03:55:58.434Z,18.06
2018-09-15T03:58:27.290Z,18.06
2018-09-15T04:00:56.104Z,18.05
2018-09-15T04:03:25.022Z,18.11
2018-09-15T04:05:53.866Z,18.12
2018-09-15T04:08:22.689Z,18.07
2018-09-15T04:10:51.561Z,18.07
2018-09-15T04:13:20.428Z,18.05
2018-09-15T04:15:49.374Z,18.08
2018-09-15T04:18:18.221Z,18.08
2018-09-15T04:20:49.868Z,18.12
2018-09-15T04:23:18.657Z,18.13
2018-09-15T04:25:47.486Z,18.17
2018-09-15T04:28:16.390Z,18.19
2018-09-15T04:30:45.255Z,18.22
2018-09-15T04:33:14.097Z,18.24
2018-09-15T04:35:43.075Z,18.34
2018-09-15T04:38:12.583Z,18.36
2018-09-15T04:40:41.622Z,18.40
2018-09-15T04:43:11.869Z,18.39
2018-09-15T04:45:40.955Z,18.41
2018-09-15T04:48:09.765Z,18.49
2018-09-15T04:50:38.647Z,18.57
2018-09-15T04:53:07.517Z,18.60
2018-09-15T04:55:37.570Z,18.68
2018-09-15T04:58:06.430Z,18.72
2018-09-15T05:00:36.134Z,18.86
2018-09-15T05:03:05.058Z,18.86
2018-09-15T05:05:33.862Z,18.86
2018-09-15T05:08:02.721Z,18.84
2018-09-15T05:10:31.568Z,18.88
2018-09-15T05:13:00.436Z,18.96
2018-09-15T05:15:29.299Z,19.04
2018-09-15T05:17:58.123Z,19.07
2018-09-15T05:20:26.942Z,19.20
2018-09-15T05:22:57.007Z,19.24
2018-09-15T05:25:25.817Z,19.25
2018-09-15T05:27:54.700Z,19.52
2018-09-15T05:30:23.560Z,19.65
2018-09-15T05:32:52.366Z,19.73
2018-09-15T05:35:21.174Z,19.78
2018-09-15T05:37:50.006Z,19.81
2018-09-15T05:40:18.837Z,19.77
2018-09-15T05:42:47.648Z,19.98
2018-09-15T05:45:16.481Z,20.11
2018-09-15T05:47:45.298Z,20.22
2018-09-15T05:50:14.148Z,20.27
2018-09-15T05:52:42.998Z,20.36
2018-09-15T05:55:11.826Z,20.39
2018-09-15T05:57:40.630Z,20.33
2018-09-15T06:00:09.556Z,20.57
2018-09-15T06:02:38.384Z,20.76
2018-09-15T06:05:07.347Z,20.82
2018-09-15T06:07:36.217Z,20.87
2018-09-15T06:10:05.250Z,20.97
2018-09-15T06:12:34.090Z,21.21
2018-09-15T06:15:02.922Z,21.34
2018-09-15T06:17:31.765Z,21.32
2018-09-15T06:20:00.651Z,21.55
2018-09-15T06:22:29.534Z,21.80
2018-09-15T06:24:59.099Z,21.82
2018-09-15T06:27:28.804Z,21.56
2018-09-15T06:29:58.853Z,21.40
2018-09-15T06:32:27.678Z,21.77
2018-09-15T06:34:56.561Z,21.82
2018-09-15T06:37:25.388Z,22.05
2018-09-15T06:39:54.215Z,22.21
2018-09-15T06:42:24.261Z,22.35
2018-09-15T06:44:53.091Z,22.49
2018-09-15T06:47:21.978Z,22.68
2018-09-15T06:49:50.810Z,23.00
2018-09-15T06:52:19.653Z,23.12
2018-09-15T06:54:49.722Z,23.06
2018-09-15T06:57:18.575Z,23.12
2018-09-15T06:59:47.399Z,23.35
2018-09-15T07:02:16.280Z,23.55
2018-09-15T07:04:45.158Z,23.58
2018-09-15T07:07:14.015Z,23.72
2018-09-15T07:09:44.106Z,23.72
2018-09-15T07:12:12.929Z,24.09
2018-09-15T07:14:41.798Z,24.42
2018-09-15T07:17:11.862Z,24.50
2018-09-15T07:19:40.674Z,24.66
2018-09-15T07:22:09.529Z,24.80
2018-09-15T07:24:38.400Z,24.93
2018-09-15T07:27:07.315Z,25.06
2018-09-15T07:29:36.153Z,25.00
2018-09-15T07:32:05.044Z,25.03
2018-09-15T07:34:33.922Z,25.11
2018-09-15T07:37:02.759Z,25.28
2018-09-15T07:39:33.041Z,25.43
2018-09-15T07:42:01.903Z,25.52
2018-09-15T07:44:30.746Z,25.60
2018-09-15T07:47:00.843Z,25.74
2018-09-15T07:49:29.719Z,25.71
2018-09-15T07:51:58.547Z,25.87
2018-09-15T07:54:27.391Z,26.01
2018-09-15T07:56:57.472Z,25.91
2018-09-15T07:59:26.428Z,25.99
2018-09-15T08:01:55.294Z,25.64
2018-09-15T08:04:25.362Z,25.95
2018-09-15T08:06:54.282Z,26.15
2018-09-15T08:09:23.117Z,26.34
2018-09-15T08:11:51.975Z,26.46
2018-09-15T08:14:22.166Z,26.70
2018-09-15T08:16:51.081Z,26.85
2018-09-15T08:19:19.971Z,27.02
2018-09-15T08:21:48.862Z,27.15
2018-09-15T08:24:17.752Z,27.08
2018-09-15T08:26:53.405Z,27.29
2018-09-15T08:29:22.424Z,27.24
2018-09-15T08:31:51.605Z,27.15
2018-09-15T08:34:22.076Z,26.97
2018-09-15T08:36:51.033Z,27.07
2018-09-15T08:39:20.889Z,27.17
2018-09-15T08:41:51.087Z,27.21
2018-09-15T08:44:19.986Z,27.42
2018-09-15T08:46:49.012Z,27.62
2018-09-15T08:49:19.110Z,28.00
2018-09-15T08:51:48.028Z,28.32
2018-09-15T08:54:17.014Z,28.59
2018-09-15T08:56:45.929Z,28.77
2018-09-15T08:59:14.793Z,29.05
2018-09-15T09:01:43.679Z,29.27
2018-09-15T09:04:12.569Z,29.31
2018-09-15T09:06:41.470Z,29.64
2018-09-15T09:09:11.782Z,29.82
2018-09-15T09:11:40.770Z,29.95
2018-09-15T09:14:09.729Z,29.60
2018-09-15T09:16:39.034Z,29.64
2018-09-15T09:19:07.982Z,29.86
2018-09-15T09:21:37.071Z,30.21
2018-09-15T09:24:06.156Z,30.21
2018-09-15T09:26:36.328Z,30.33
2018-09-15T09:29:05.468Z,30.53
2018-09-15T09:31:34.358Z,30.61
2018-09-15T09:34:03.957Z,30.50
2018-09-15T09:36:32.878Z,30.56
2018-09-15T09:39:01.714Z,30.35
2018-09-15T09:41:30.671Z,30.72
2018-09-15T09:43:59.530Z,30.39
2018-09-15T09:46:28.475Z,30.10
2018-09-15T09:48:57.389Z,30.01
2018-09-15T09:51:26.258Z,30.13
2018-09-15T09:53:55.126Z,29.84
2018-09-15T09:56:24.067Z,30.01
2018-09-15T09:58:52.950Z,30.44
2018-09-15T10:01:24.142Z,30.71
2018-09-15T10:03:53.045Z,30.85
2018-09-15T10:06:21.921Z,31.30
2018-09-15T10:08:50.768Z,31.29
2018-09-15T10:11:21.168Z,30.99
2018-09-15T10:13:49.986Z,30.54
2018-09-15T10:16:19.901Z,30.51
2018-09-15T10:18:48.793Z,29.95
2018-09-15T10:21:19.021Z,29.84
2018-09-15T10:23:47.897Z,29.67
2018-09-15T10:26:16.750Z,29.93
2018-09-15T10:28:45.733Z,30.17
2018-09-15T10:31:14.613Z,30.46
2018-09-15T10:33:43.778Z,31.27
2018-09-15T10:38:56.416Z,31.99
2018-09-15T10:41:25.687Z,31.75
2018-09-15T10:43:54.750Z,31.53
2018-09-15T10:46:23.736Z,31.33
2018-09-15T10:48:52.669Z,31.27
2018-09-15T10:51:22.953Z,31.24
2018-09-15T10:53:51.871Z,31.26
2018-09-15T10:56:20.718Z,31.45
2018-09-15T10:58:49.673Z,31.67
2018-09-15T11:01:19.686Z,31.80
2018-09-15T11:03:50.110Z,31.44
2018-09-15T11:06:19.218Z,31.24
2018-09-15T11:08:48.186Z,31.29
2018-09-15T11:11:17.066Z,31.47
2018-09-15T11:13:46.073Z,31.19
2018-09-15T11:16:15.085Z,30.70
2018-09-15T11:18:44.126Z,30.47
2018-09-15T11:21:12.989Z,30.40
2018-09-15T11:23:43.333Z,30.35
2018-09-15T11:26:12.191Z,30.28
2018-09-15T11:28:41.093Z,30.35
2018-09-15T11:31:10.038Z,30.42
2018-09-15T11:33:38.918Z,30.56
2018-09-15T11:36:07.931Z,30.46
2018-09-15T11:38:38.268Z,30.51
2018-09-15T11:41:07.230Z,30.81
2018-09-15T11:43:36.147Z,31.22
2018-09-15T11:46:05.049Z,31.28
2018-09-15T11:48:34.085Z,31.19
2018-09-15T11:51:02.966Z,31.05
2018-09-15T11:53:35.994Z,31.00
2018-09-15T11:56:05.660Z,30.91
2018-09-15T11:58:34.705Z,30.93
2018-09-15T12:01:04.448Z,30.91
2018-09-15T12:03:33.632Z,30.60
2018-09-15T12:06:02.479Z,29.88
2018-09-15T12:08:31.534Z,29.74
2018-09-15T12:11:02.207Z,29.58
2018-09-15T12:13:31.374Z,29.87
2018-09-15T12:16:00.679Z,30.31
2018-09-15T12:18:29.961Z,30.21
2018-09-15T12:21:00.400Z,30.27
2018-09-15T12:23:29.556Z,30.03
2018-09-15T12:25:58.722Z,29.91
2018-09-15T12:28:27.585Z,29.98
2018-09-15T12:30:58.690Z,30.16
2018-09-15T12:33:27.631Z,29.84
2018-09-15T12:35:56.527Z,29.80
2018-09-15T12:38:25.347Z,29.95
2018-09-15T12:40:54.215Z,29.87
2018-09-15T12:43:23.076Z,29.24
2018-09-15T12:45:51.978Z,29.03
2018-09-15T12:48:20.910Z,29.15
2018-09-15T12:50:49.803Z,28.63
2018-09-15T12:53:18.705Z,28.78
2018-09-15T12:55:47.629Z,28.90
2018-09-15T12:58:16.524Z,28.98
2018-09-15T13:00:45.519Z,29.08
2018-09-15T13:03:14.348Z,29.33
2018-09-15T13:05:43.263Z,29.25
2018-09-15T13:08:12.275Z,29.08
2018-09-15T13:10:41.174Z,29.02
2018-09-15T13:13:10.058Z,28.67
2018-09-15T13:15:38.974Z,28.66
2018-09-15T13:18:07.849Z,29.56
2018-09-15T13:20:36.747Z,29.13
2018-09-15T13:23:05.665Z,28.38
2018-09-15T13:25:34.514Z,28.14
2018-09-15T13:28:03.407Z,28.02
2018-09-15T13:30:32.294Z,28.00
2018-09-15T13:33:01.170Z,27.84
2018-09-15T13:35:30.050Z,27.75
2018-09-15T13:37:59.103Z,27.86
2018-09-15T13:40:27.925Z,27.75
2018-09-15T13:42:56.799Z,27.52
2018-09-15T13:45:25.778Z,27.44
2018-09-15T13:47:54.687Z,27.36
2018-09-15T13:50:23.597Z,27.30
2018-09-15T13:52:52.564Z,27.23
2018-09-15T13:55:22.795Z,27.25
2018-09-15T13:57:51.764Z,27.32
2018-09-15T14:00:20.630Z,27.40
2018-09-15T14:02:49.502Z,27.35
2018-09-15T14:05:18.461Z,27.42
2018-09-15T14:07:47.404Z,27.56
2018-09-15T14:10:19.016Z,27.64
2018-09-15T14:12:45.102Z,27.68
2018-09-15T14:15:14.052Z,27.75
2018-09-15T14:17:42.897Z,27.91
2018-09-15T14:20:11.750Z,28.23
2018-09-15T14:22:40.710Z,28.45
2018-09-15T14:25:09.550Z,28.46
2018-09-15T14:27:38.379Z,28.67
2018-09-15T14:30:07.576Z,28.82
2018-09-15T14:32:36.479Z,28.88
2018-09-15T14:35:05.410Z,28.98
2018-09-15T14:37:34.424Z,29.06
2018-09-15T14:40:03.388Z,28.91
2018-09-15T14:42:32.266Z,28.57
2018-09-15T14:45:01.154Z,28.23
2018-09-15T14:47:31.287Z,28.15
2018-09-15T14:50:00.194Z,28.01
2018-09-15T14:52:29.148Z,28.11
2018-09-15T14:54:59.446Z,28.14
2018-09-15T14:57:28.325Z,28.09
2018-09-15T14:59:57.207Z,28.09
2018-09-15T15:02:26.248Z,27.93
2018-09-15T15:04:56.452Z,27.95
2018-09-15T15:07:25.382Z,28.01
2018-09-15T15:09:54.201Z,28.45
2018-09-15T15:12:23.092Z,29.10
2018-09-15T15:14:53.255Z,30.11
2018-09-15T15:17:22.218Z,30.63
2018-09-15T15:19:51.082Z,31.39
2018-09-15T15:22:20.035Z,32.15
2018-09-15T15:24:48.846Z,32.23
2018-09-15T15:27:18.982Z,32.56
2018-09-15T15:29:47.889Z,32.33
2018-09-15T15:32:16.832Z,32.48
2018-09-15T15:34:45.695Z,32.56
2018-09-15T15:37:14.590Z,32.74
2018-09-15T15:39:44.815Z,32.59
2018-09-15T15:42:13.753Z,32.73
2018-09-15T15:44:43.882Z,32.48
2018-09-15T15:47:12.765Z,32.61
2018-09-15T15:49:41.723Z,32.40
2018-09-15T15:52:11.799Z,31.92
2018-09-15T15:54:42.122Z,31.60
2018-09-15T15:57:10.986Z,31.36
2018-09-15T15:59:39.891Z,30.78
2018-09-15T16:02:09.953Z,30.59
2018-09-15T16:04:38.809Z,30.37
2018-09-15T16:07:07.690Z,29.55
2018-09-15T16:09:36.624Z,29.18
2018-09-15T16:12:05.506Z,28.89
2018-09-15T16:14:34.477Z,28.23
2018-09-15T16:17:03.401Z,27.90
2018-09-15T16:19:33.822Z,27.52
2018-09-15T16:22:02.939Z,27.04
2018-09-15T16:24:31.922Z,26.68
2018-09-15T16:27:00.736Z,26.45
2018-09-15T16:29:30.949Z,26.32
2018-09-15T16:32:00.330Z,26.09
2018-09-15T16:34:29.262Z,26.05
2018-09-15T16:36:59.492Z,25.92
2018-09-15T16:39:28.428Z,25.93
2018-09-15T16:41:57.301Z,25.83
2018-09-15T16:44:27.583Z,25.68
2018-09-15T16:46:56.538Z,25.61
2018-09-15T16:49:25.471Z,25.57
2018-09-15T16:51:54.957Z,25.56
2018-09-15T16:54:25.458Z,25.48
2018-09-15T16:56:54.459Z,25.39
2018-09-15T16:59:23.539Z,25.36
2018-09-15T17:01:52.751Z,25.42
2018-09-15T17:04:21.659Z,25.37
2018-09-15T17:06:50.760Z,25.28
2018-09-15T17:09:19.769Z,25.25
2018-09-15T17:11:48.818Z,25.30
2018-09-15T17:14:18.002Z,25.19
2018-09-15T17:16:46.946Z,25.19
2018-09-15T17:19:15.774Z,25.04
2018-09-15T17:21:44.697Z,25.02
2018-09-15T17:24:13.583Z,24.97
2018-09-15T17:26:42.678Z,25.00
2018-09-15T17:29:11.818Z,24.95
2018-09-15T17:31:40.903Z,24.89
2018-09-15T17:34:09.962Z,24.91
2018-09-15T17:36:39.073Z,24.83
2018-09-15T17:39:11.740Z,24.74
2018-09-15T17:41:40.602Z,24.71
2018-09-15T17:44:09.480Z,24.71
2018-09-15T17:46:38.339Z,24.69
2018-09-15T17:49:07.306Z,24.65
2018-09-15T17:51:36.307Z,24.56
2018-09-15T17:54:05.197Z,24.57
2018-09-15T17:56:34.025Z,24.57
2018-09-15T17:59:02.876Z,24.49
2018-09-15T18:01:31.780Z,24.50
2018-09-15T18:04:00.796Z,24.38
2018-09-15T18:06:29.666Z,24.41
2018-09-15T18:08:59.752Z,24.38
2018-09-15T18:11:28.591Z,24.43
2018-09-15T18:13:57.444Z,24.38
2018-09-15T18:16:26.371Z,24.28
2018-09-15T18:18:55.195Z,24.27
2018-09-15T18:21:24.028Z,24.24
2018-09-15T18:23:52.920Z,24.21
2018-09-15T18:26:21.767Z,24.20
2018-09-15T18:28:51.911Z,24.17
2018-09-15T18:31:20.723Z,24.18
2018-09-15T18:33:50.863Z,24.20
2018-09-15T18:36:19.949Z,24.09
2018-09-15T18:38:48.806Z,24.03
2018-09-15T18:41:19.583Z,24.08
2018-09-15T18:43:49.812Z,24.16
2018-09-15T18:46:18.913Z,24.19
2018-09-15T18:48:47.719Z,24.19
2018-09-15T18:51:16.623Z,24.09
2018-09-15T18:53:46.770Z,23.85
2018-09-15T18:56:15.768Z,23.74
2018-09-15T18:58:44.544Z,23.82
2018-09-15T19:01:13.699Z,23.56
2018-09-15T19:03:42.827Z,23.41
2018-09-15T19:06:12.177Z,23.31
2018-09-15T19:08:41.008Z,23.40
2018-09-15T19:11:11.101Z,23.48
2018-09-15T19:13:39.987Z,23.43
2018-09-15T19:16:10.381Z,23.33
2018-09-15T19:18:39.690Z,23.26
2018-09-15T19:21:10.153Z,23.26
2018-09-15T19:23:39.075Z,23.28
2018-09-15T19:26:07.925Z,23.31
2018-09-15T19:28:36.771Z,23.26
2018-09-15T19:31:05.627Z,23.27
2018-09-15T19:33:34.442Z,23.25
2018-09-15T19:36:03.672Z,23.29
2018-09-15T19:38:32.750Z,23.28
2018-09-15T19:41:03.286Z,23.29
2018-09-15T19:43:32.120Z,23.27
2018-09-15T19:46:01.122Z,23.33
2018-09-15T19:48:31.379Z,23.28
2018-09-15T19:51:00.611Z,23.15
2018-09-15T19:53:29.644Z,23.04
2018-09-15T19:55:59.784Z,23.07
2018-09-15T19:58:28.821Z,23.38
2018-09-15T20:00:59.290Z,23.46
2018-09-15T20:03:28.114Z,23.41
2018-09-15T20:05:57.167Z,23.25
2018-09-15T20:08:26.082Z,23.21
2018-09-15T20:10:54.911Z,23.23
2018-09-15T20:13:23.744Z,23.33
2018-09-15T20:15:51.376Z,23.53
2018-09-15T20:18:18.941Z,23.56
2018-09-15T20:20:47.856Z,23.70
2018-09-15T20:23:16.925Z,23.76
2018-09-15T20:25:45.989Z,23.77
2018-09-15T20:28:14.871Z,23.69
2018-09-15T20:30:43.702Z,23.71
2018-09-15T20:33:12.905Z,23.79
2018-09-15T20:35:42.052Z,23.83
2018-09-15T20:38:11.085Z,23.79
2018-09-15T20:40:40.090Z,23.79
2018-09-15T20:43:09.082Z,23.74
2018-09-15T20:45:38.046Z,23.66
2018-09-15T20:48:07.629Z,23.67
2018-09-15T20:50:36.570Z,23.72
2018-09-15T20:53:05.510Z,23.59
2018-09-15T20:55:34.349Z,23.63
2018-09-15T20:58:03.208Z,23.66
2018-09-15T21:00:32.042Z,23.73
2018-09-15T21:03:00.884Z,23.72
2018-09-15T21:05:29.747Z,23.85
2018-09-15T21:07:58.618Z,23.74
2018-09-15T21:10:27.458Z,23.22
2018-09-15T21:12:56.298Z,23.09
2018-09-15T21:15:25.152Z,22.91
2018-09-15T21:17:53.964Z,22.73
2018-09-15T21:20:24.028Z,22.68
2018-09-15T21:22:52.898Z,22.58
2018-09-15T21:25:21.694Z,22.51
2018-09-15T21:27:50.505Z,22.57
2018-09-15T21:30:19.395Z,22.49
2018-09-15T21:32:48.234Z,22.45
2018-09-15T21:35:17.089Z,22.25
2018-09-15T21:37:46.000Z,22.15
2018-09-15T21:40:14.832Z,21.69
2018-09-15T21:42:43.670Z,21.67
2018-09-15T21:45:13.016Z,21.52
2018-09-15T21:47:41.851Z,21.37
2018-09-15T21:50:10.769Z,21.21
2018-09-15T21:52:39.677Z,21.10
2018-09-15T21:55:08.793Z,21.13
2018-09-15T21:57:37.671Z,21.22
2018-09-15T22:00:08.785Z,21.22
2018-09-15T22:02:37.698Z,21.07
2018-09-15T22:05:06.595Z,21.06
2018-09-15T22:07:35.857Z,21.15
2018-09-15T22:10:05.211Z,21.18
2018-09-15T22:12:34.417Z,21.19
2018-09-15T22:15:03.589Z,21.23
2018-09-15T22:17:32.796Z,21.29
2018-09-15T22:20:01.896Z,21.31
2018-09-15T22:22:31.224Z,21.23
2018-09-15T22:25:00.394Z,21.17
2018-09-15T22:27:29.630Z,21.07
2018-09-15T22:29:58.818Z,20.93
2018-09-15T22:32:27.972Z,20.86
2018-09-15T22:34:57.113Z,20.65
2018-09-15T22:37:26.282Z,20.61
2018-09-15T22:39:55.691Z,20.40
2018-09-15T22:42:26.316Z,20.09
2018-09-15T22:44:55.405Z,20.09
2018-09-15T22:47:24.503Z,20.20
2018-09-15T22:49:53.775Z,20.24
2018-09-15T22:52:23.041Z,20.24
2018-09-15T22:54:53.767Z,20.15
2018-09-15T22:57:23.199Z,20.18
2018-09-15T22:59:52.371Z,20.20
2018-09-15T23:02:21.573Z,20.26
2018-09-15T23:04:50.720Z,20.25
2018-09-15T23:07:20.003Z,20.29
2018-09-15T23:09:49.436Z,20.38
2018-09-15T23:12:18.720Z,20.46
2018-09-15T23:14:47.902Z,20.49
2018-09-15T23:17:18.218Z,20.45
2018-09-15T23:19:47.922Z,20.26
2018-09-15T23:22:17.325Z,20.20
2018-09-15T23:24:46.420Z,20.12
2018-09-15T23:27:15.380Z,20.08
2018-09-15T23:29:44.315Z,20.02
2018-09-15T23:32:13.323Z,19.85
2018-09-15T23:34:42.314Z,19.90
2018-09-15T23:37:11.297Z,19.68
2018-09-15T23:39:40.209Z,19.69
2018-09-15T23:42:09.198Z,19.65
2018-09-15T23:44:38.152Z,19.60
2018-09-15T23:47:07.047Z,19.66
2018-09-15T23:49:36.027Z,19.66
2018-09-15T23:52:04.964Z,19.81
2018-09-15T23:54:33.908Z,19.86
2018-09-15T23:57:02.812Z,19.94
2018-09-15T23:59:31.753Z,19.94
